Time;durP1;ratioP1;P1;durP2;ratioP2;P2;SDS_P1;SDS_P2;PMS_P1;PMS_P2;Temp;Humidity;BMP_temperature;BMP_pressure;BME280_temperature;BME280_humidity;BME280_pressure;Samples;Min_cycle;Max_cycle;Signal;HPM_P1;HPM_P2
2023/08/05 00:02:31;;;;;;;7.63;4.40;;;;;;;17.62;100.00;101610.53;5212910;28;20113;-80
2023/08/05 00:05:03;;;;;;;5.30;3.40;;;;;;;17.48;100.00;101613.41;5226019;28;20486;-75
2023/08/05 00:07:35;;;;;;;5.47;3.43;;;;;;;17.71;100.00;101602.81;5231392;28;20045;-86
2023/08/05 00:10:07;;;;;;;6.00;3.73;;;;;;;17.58;100.00;101601.13;5232465;28;20029;-84
2023/08/05 00:12:38;;;;;;;9.07;3.87;;;;;;;17.32;100.00;101585.47;5233536;28;20547;-86
2023/08/05 00:15:10;;;;;;;6.63;3.87;;;;;;;17.61;100.00;101590.28;5233157;28;20859;-83
2023/08/05 00:17:41;;;;;;;9.23;4.33;;;;;;;17.47;100.00;101591.38;5233320;28;20376;-83
2023/08/05 00:20:12;;;;;;;5.60;3.50;;;;;;;17.42;100.00;101586.44;5233267;28;20024;-84
2023/08/05 00:22:43;;;;;;;12.43;4.23;;;;;;;17.45;100.00;101592.47;5232537;28;20025;-78
2023/08/05 00:25:15;;;;;;;7.67;4.20;;;;;;;17.48;100.00;101587.78;5233553;28;20025;-77
2023/08/05 00:27:46;;;;;;;10.90;4.50;;;;;;;17.64;100.00;101586.59;5233002;28;20029;-78
2023/08/05 00:30:17;;;;;;;7.23;3.70;;;;;;;17.65;100.00;101589.09;5232901;28;20032;-82
2023/08/05 00:32:49;;;;;;;4.67;3.10;;;;;;;17.62;100.00;101584.06;5232860;28;20032;-85
2023/08/05 00:35:22;;;;;;;11.10;4.13;;;;;;;17.57;100.00;101586.22;5231319;28;20850;-86
2023/08/05 00:37:53;;;;;;;5.60;3.67;;;;;;;17.45;100.00;101574.78;5215397;28;20036;-85
2023/08/05 00:40:25;;;;;;;7.37;4.47;;;;;;;17.35;100.00;101577.28;5227332;28;20112;-87
2023/08/05 00:42:56;;;;;;;7.20;3.63;;;;;;;17.57;100.00;101575.63;5212344;28;20382;-82
2023/08/05 00:45:28;;;;;;;7.90;4.60;;;;;;;17.93;100.00;101571.97;5210603;28;20111;-76
2023/08/05 00:47:59;;;;;;;6.20;3.97;;;;;;;17.63;100.00;101568.97;5227747;28;20062;-79
2023/08/05 00:50:32;;;;;;;5.87;3.57;;;;;;;17.72;100.00;101559.47;5210810;28;20122;-78
2023/08/05 00:53:03;;;;;;;5.10;3.93;;;;;;;17.75;100.00;101554.78;5211980;28;20033;-81
2023/08/05 00:55:35;;;;;;;5.87;4.67;;;;;;;17.84;100.00;101557.69;5212274;28;20034;-80
2023/08/05 00:58:07;;;;;;;7.20;4.17;;;;;;;17.85;100.00;101554.91;5211782;28;20076;-86
2023/08/05 01:00:38;;;;;;;6.10;4.57;;;;;;;17.87;100.00;101552.94;5212267;28;20116;-86
2023/08/05 01:03:10;;;;;;;7.40;4.47;;;;;;;17.81;100.00;101550.81;5210688;28;20018;-78
2023/08/05 01:05:42;;;;;;;5.73;4.30;;;;;;;17.65;100.00;101556.47;5226526;28;20068;-86
2023/08/05 01:08:14;;;;;;;5.83;3.83;;;;;;;17.76;100.00;101555.63;5210464;28;20068;-74
2023/08/05 01:10:45;;;;;;;8.40;4.10;;;;;;;17.68;100.00;101552.75;5220882;28;20022;-80
2023/08/05 01:13:17;;;;;;;7.30;4.87;;;;;;;17.65;100.00;101544.06;5232125;28;20121;-83
2023/08/05 01:15:48;;;;;;;8.87;4.40;;;;;;;17.53;100.00;101545.03;5245592;28;20037;-72
2023/08/05 01:18:20;;;;;;;7.20;4.93;;;;;;;17.56;100.00;101555.38;5253125;28;20037;-81
2023/08/05 01:20:54;;;;;;;8.77;5.40;;;;;;;17.56;100.00;101541.31;5232114;28;20396;-89
2023/08/05 01:23:40;;;;;;;9.13;5.05;;;;;;;17.70;100.00;101540.22;5232670;28;20089;-89
2023/08/05 01:26:12;;;;;;;5.43;4.50;;;;;;;17.40;100.00;101545.19;5232135;28;20040;-81
2023/08/05 01:28:45;;;;;;;7.37;5.23;;;;;;;17.42;100.00;101545.88;5253042;28;20025;-84
2023/08/05 01:31:17;;;;;;;6.63;4.70;;;;;;;17.25;100.00;101528.66;5244779;28;20037;-86
2023/08/05 01:33:48;;;;;;;8.73;4.80;;;;;;;17.37;100.00;101540.94;5231859;28;20029;-88
2023/08/05 01:36:20;;;;;;;5.83;4.90;;;;;;;17.34;100.00;101543.00;5231681;28;20061;-89
2023/08/05 01:38:52;;;;;;;8.47;4.77;;;;;;;17.23;100.00;101538.53;5236926;28;20047;-90
2023/08/05 01:41:24;;;;;;;10.47;5.00;;;;;;;17.22;100.00;101535.06;5232031;28;20025;-89
2023/08/05 01:43:55;;;;;;;7.23;5.67;;;;;;;17.23;100.00;101530.59;5230800;28;20033;-75
2023/08/05 01:46:26;;;;;;;9.70;5.40;;;;;;;17.32;100.00;101536.97;5232263;28;20055;-84
2023/08/05 01:48:58;;;;;;;10.33;5.07;;;;;;;17.28;100.00;101534.56;5232498;28;20034;-82
2023/08/05 01:51:29;;;;;;;9.43;5.37;;;;;;;17.00;100.00;101536.66;5244673;28;20033;-80
2023/08/05 01:54:00;;;;;;;8.87;5.10;;;;;;;17.21;100.00;101538.66;5251107;28;20078;-75
2023/08/05 01:56:31;;;;;;;7.37;5.67;;;;;;;16.85;100.00;101549.25;5254695;28;20059;-84
2023/08/05 01:59:03;;;;;;;9.47;5.40;;;;;;;17.09;100.00;101534.28;5257699;28;20704;-90
2023/08/05 02:01:45;;;;;;;7.10;5.30;;;;;;;17.24;100.00;101532.28;5257535;28;20561;-84
2023/08/05 02:04:16;;;;;;;9.07;5.33;;;;;;;17.10;100.00;101536.84;5257361;28;20032;-87
2023/08/05 02:06:47;;;;;;;9.03;5.30;;;;;;;17.02;100.00;101536.53;5255440;28;20607;-88
2023/08/05 02:09:19;;;;;;;9.67;5.50;;;;;;;17.10;100.00;101547.44;5238007;28;20052;-86
2023/08/05 02:11:50;;;;;;;9.00;5.73;;;;;;;17.17;100.00;101534.56;5235779;28;20044;-78
2023/08/05 02:14:22;;;;;;;8.50;5.23;;;;;;;16.69;100.00;101544.28;5236153;28;20087;-89
2023/08/05 02:16:53;;;;;;;8.77;5.57;;;;;;;16.87;100.00;101531.47;5249302;28;20021;-88
2023/08/05 02:19:24;;;;;;;8.17;5.60;;;;;;;16.73;100.00;101516.66;5244146;28;20041;-86
2023/08/05 02:21:56;;;;;;;7.23;6.00;;;;;;;16.81;100.00;101534.56;5232944;28;20033;-79
2023/08/05 02:24:27;;;;;;;8.70;6.30;;;;;;;16.82;100.00;101538.91;5237803;28;20034;-82
2023/08/05 02:26:58;;;;;;;6.93;6.00;;;;;;;16.74;100.00;101541.31;5257141;28;20033;-83
2023/08/05 02:29:30;;;;;;;9.17;6.57;;;;;;;16.71;100.00;101536.22;5236316;28;20033;-83
2023/08/05 02:32:02;;;;;;;9.50;6.23;;;;;;;16.50;100.00;101528.94;5243316;28;20029;-86
2023/08/05 02:34:35;;;;;;;10.53;6.00;;;;;;;16.67;100.00;101525.88;5241390;28;20040;-88
2023/08/05 02:37:06;;;;;;;6.67;5.70;;;;;;;16.54;100.00;101525.13;5255446;28;20460;-87
2023/08/05 02:39:41;;;;;;;12.50;7.03;;;;;;;16.65;100.00;101514.56;5241846;28;20041;-89
2023/08/05 02:42:12;;;;;;;;;;;;;;;17.20;100.00;101517.59;5235582;28;20041;-81
2023/08/05 02:44:43;;;;;;;7.60;6.17;;;;;;;16.54;100.00;101525.13;5234682;28;19913;-82
2023/08/05 02:47:15;;;;;;;9.97;5.70;;;;;;;16.37;100.00;101519.28;5235727;28;20025;-81
2023/08/05 02:49:46;;;;;;;9.90;7.77;;;;;;;16.56;100.00;101513.47;5235028;28;20064;-74
2023/08/05 02:52:17;;;;;;;9.47;6.77;;;;;;;16.43;100.00;101518.84;5234082;28;20516;-88
2023/08/05 02:54:49;;;;;;;7.63;6.07;;;;;;;16.44;100.00;101499.38;5253076;28;20203;-84
2023/08/05 02:57:20;;;;;;;12.57;7.23;;;;;;;16.26;100.00;101512.16;5253189;28;20029;-78
2023/08/05 02:59:51;;;;;;;7.33;6.60;;;;;;;16.50;100.00;101513.09;5242092;28;20921;-88
2023/08/05 03:02:22;;;;;;;10.17;6.70;;;;;;;16.33;100.00;101508.13;5256286;28;20033;-89
2023/08/05 03:04:54;;;;;;;7.13;6.43;;;;;;;16.04;100.00;101492.59;5239317;28;20044;-87
2023/08/05 03:07:25;;;;;;;8.17;6.57;;;;;;;16.41;100.00;101507.53;5233206;28;20032;-75
2023/08/05 03:09:56;;;;;;;14.17;7.90;;;;;;;16.46;100.00;101496.59;5235063;28;20610;-79
2023/08/05 03:12:27;;;;;;;7.70;6.70;;;;;;;16.12;100.00;101481.47;5233730;28;20029;-83
2023/08/05 03:14:59;;;;;;;9.03;7.13;;;;;;;16.29;100.00;101480.22;5235072;28;20041;-82
2023/08/05 03:17:31;;;;;;;7.43;6.20;;;;;;;16.40;100.00;101482.06;5252337;28;20483;-73
2023/08/05 03:20:04;;;;;;;12.10;7.23;;;;;;;16.43;100.00;101488.91;5254886;28;20033;-90
2023/08/05 03:22:36;;;;;;;12.17;7.37;;;;;;;16.31;100.00;101482.75;5254714;28;20059;-87
2023/08/05 03:25:07;;;;;;;10.20;7.07;;;;;;;16.36;100.00;101482.38;5255169;28;20112;-88
2023/08/05 03:27:38;;;;;;;11.47;7.00;;;;;;;16.35;100.00;101478.91;5255943;28;20084;-88
2023/08/05 03:30:10;;;;;;;9.07;7.20;;;;;;;16.29;100.00;101484.66;5254198;28;20067;-82
2023/08/05 03:32:41;;;;;;;9.70;7.60;;;;;;;16.27;100.00;101481.28;5254043;28;20059;-85
2023/08/05 03:35:13;;;;;;;9.57;7.50;;;;;;;16.06;100.00;101476.63;5252537;28;20086;-81
2023/08/05 03:37:45;;;;;;;9.67;7.30;;;;;;;16.20;100.00;101476.44;5234491;28;20061;-74
2023/08/05 03:40:16;;;;;;;10.27;7.80;;;;;;;16.28;100.00;101467.97;5233081;28;20025;-88
2023/08/05 03:42:47;;;;;;;11.50;8.67;;;;;;;16.32;100.00;101464.13;5242892;28;20047;-88
2023/08/05 03:45:19;;;;;;;10.77;8.17;;;;;;;16.17;100.00;101447.63;5254919;28;20100;-82
2023/08/05 03:47:51;;;;;;;10.33;7.40;;;;;;;16.18;100.00;101459.84;5237256;28;20126;-84
2023/08/05 03:50:23;;;;;;;12.00;8.33;;;;;;;15.89;100.00;101454.03;5236535;28;20541;-81
2023/08/05 03:52:55;;;;;;;8.33;7.47;;;;;;;16.07;100.00;101447.47;5254566;28;20037;-86
2023/08/05 03:55:26;;;;;;;9.23;7.47;;;;;;;16.14;100.00;101453.13;5242732;28;20039;-86
2023/08/05 03:57:58;;;;;;;10.07;7.63;;;;;;;16.13;100.00;101448.78;5234347;28;20041;-84
2023/08/05 04:00:29;;;;;;;13.10;8.20;;;;;;;15.92;100.00;101432.69;5233471;28;20022;-84
2023/08/05 04:03:00;;;;;;;9.40;8.07;;;;;;;15.79;100.00;101435.41;5224266;28;20036;-73
2023/08/05 04:05:32;;;;;;;8.90;7.67;;;;;;;15.75;100.00;101439.19;5232795;28;20626;-86
2023/08/05 04:08:03;;;;;;;8.77;7.93;;;;;;;15.96;100.00;101432.38;5249723;28;20365;-88
2023/08/05 04:10:36;;;;;;;11.10;8.33;;;;;;;15.79;100.00;101428.31;5255023;28;20086;-86
2023/08/05 04:13:11;;;;;;;9.50;8.47;;;;;;;15.84;100.00;101430.63;5254426;28;20108;-88
2023/08/05 04:15:42;;;;;;;15.23;8.37;;;;;;;15.93;100.00;101431.75;5255171;28;20032;-83
2023/08/05 04:18:13;;;;;;;10.23;8.70;;;;;;;15.92;100.00;101430.03;5253181;28;20621;-84
2023/08/05 04:20:46;;;;;;;10.93;8.67;;;;;;;16.02;100.00;101440.81;5252935;28;20497;-74
2023/08/05 04:23:21;;;;;;;9.30;8.13;;;;;;;15.92;100.00;101424.75;5234254;28;20071;-88
2023/08/05 04:25:52;;;;;;;11.27;9.03;;;;;;;15.64;100.00;101417.06;5233257;28;20041;-88
2023/08/05 04:28:24;;;;;;;10.63;8.27;;;;;;;15.68;100.00;101397.41;5227594;28;20022;-86
2023/08/05 04:30:57;;;;;;;11.50;8.33;;;;;;;15.94;100.00;101405.22;5232702;28;20025;-89
2023/08/05 04:33:28;;;;;;;12.07;8.37;;;;;;;15.91;100.00;101402.81;5224547;28;20048;-80
2023/08/05 04:36:00;;;;;;;12.43;9.93;;;;;;;15.99;100.00;101396.13;5231005;28;20049;-87
2023/08/05 04:38:31;;;;;;;13.03;9.60;;;;;;;15.98;100.00;101397.91;5224799;28;20033;-73
2023/08/05 04:41:02;;;;;;;11.17;8.13;;;;;;;16.14;100.00;101400.28;5218291;28;20026;-77
2023/08/05 04:43:34;;;;;;;11.43;8.73;;;;;;;16.18;100.00;101387.69;5236768;28;20033;-86
2023/08/05 04:46:05;;;;;;;12.00;9.77;;;;;;;16.14;100.00;101389.72;5236802;28;20022;-88
2023/08/05 04:48:36;;;;;;;10.17;8.30;;;;;;;16.20;100.00;101380.47;5234054;28;20030;-90
2023/08/05 04:51:08;;;;;;;10.63;8.33;;;;;;;16.27;100.00;101378.19;5222950;28;20504;-83
2023/08/05 04:53:39;;;;;;;14.07;9.03;;;;;;;16.15;100.00;101380.81;5206296;28;20033;-75
2023/08/05 04:56:10;;;;;;;10.83;8.97;;;;;;;16.04;100.00;101386.09;5213109;28;20033;-79
2023/08/05 04:58:42;;;;;;;10.60;9.50;;;;;;;16.09;100.00;101373.38;5222316;28;20026;-79
2023/08/05 05:01:13;;;;;;;11.17;8.60;;;;;;;16.16;100.00;101390.41;5230583;28;20036;-77
2023/08/05 05:03:46;;;;;;;12.97;9.20;;;;;;;15.85;100.00;101382.13;5233084;28;20550;-74
2023/08/05 05:06:18;;;;;;;10.73;9.43;;;;;;;15.95;100.00;101388.41;5231937;28;20025;-81
2023/08/05 05:08:49;;;;;;;11.87;8.37;;;;;;;15.95;100.00;101393.69;5232619;28;20033;-78
2023/08/05 05:11:20;;;;;;;14.10;8.63;;;;;;;16.07;100.00;101391.97;5232679;28;20040;-81
2023/08/05 05:13:52;;;;;;;9.17;8.10;;;;;;;15.92;100.00;101375.44;5231133;28;20051;-82
2023/08/05 05:16:23;;;;;;;11.80;8.40;;;;;;;16.12;100.00;101383.69;5231838;28;20121;-82
2023/08/05 05:18:54;;;;;;;10.83;8.57;;;;;;;15.99;100.00;101357.34;5231377;28;20534;-75
2023/08/05 05:21:26;;;;;;;10.87;8.33;;;;;;;16.19;100.00;101377.00;5225190;28;20033;-81
2023/08/05 05:23:57;;;;;;;10.30;8.57;;;;;;;16.18;100.00;101372.66;5231516;28;20026;-81
2023/08/05 05:26:28;;;;;;;9.47;8.47;;;;;;;16.17;100.00;101381.56;5232391;28;20120;-81
2023/08/05 05:28:59;;;;;;;13.37;9.30;;;;;;;16.14;100.00;101378.31;5232123;28;20105;-77
2023/08/05 05:31:31;;;;;;;15.33;9.37;;;;;;;15.95;100.00;101364.63;5230110;28;20087;-75
2023/08/05 05:34:02;;;;;;;13.90;9.43;;;;;;;16.20;100.00;101361.97;5231307;28;20057;-78
2023/08/05 05:36:33;;;;;;;13.03;9.60;;;;;;;16.25;100.00;101364.28;5237422;28;20032;-79
2023/08/05 05:39:05;;;;;;;13.53;9.57;;;;;;;16.36;100.00;101364.28;5252331;28;20048;-80
2023/08/05 05:41:36;;;;;;;15.37;10.20;;;;;;;16.24;100.00;101357.28;5235591;28;20029;-77
2023/08/05 05:44:07;;;;;;;11.43;9.77;;;;;;;16.37;100.00;101367.78;5231011;28;20591;-80
2023/08/05 05:46:39;;;;;;;17.87;10.30;;;;;;;16.28;100.00;101364.03;5231250;28;20040;-81
2023/08/05 05:49:10;;;;;;;11.87;9.20;;;;;;;16.26;100.00;101358.03;5231593;28;20025;-83
2023/08/05 05:51:45;;;;;;;13.87;9.80;;;;;;;16.48;100.00;101357.22;5232975;28;20040;-73
2023/08/05 05:54:17;;;;;;;10.57;9.10;;;;;;;16.41;100.00;101359.50;5252742;28;20136;-78
2023/08/05 05:56:48;;;;;;;13.17;8.73;;;;;;;16.52;100.00;101349.91;5242268;28;20124;-81
2023/08/05 05:59:19;;;;;;;9.67;8.60;;;;;;;16.65;100.00;101357.72;5232469;28;20543;-77
2023/08/05 06:01:50;;;;;;;12.93;10.13;;;;;;;16.52;100.00;101350.75;5230627;28;20029;-79
2023/08/05 06:04:24;;;;;;;11.03;9.03;;;;;;;16.65;100.00;101353.25;5230784;28;20030;-81
2023/08/05 06:06:55;;;;;;;10.20;8.90;;;;;;;16.63;100.00;101343.78;5231108;28;20034;-81
2023/08/05 06:09:27;;;;;;;10.10;9.07;;;;;;;16.72;100.00;101342.22;5231078;28;20083;-81
2023/08/05 06:11:59;;;;;;;10.23;8.70;;;;;;;16.71;100.00;101346.66;5231513;28;20025;-80
2023/08/05 06:14:30;;;;;;;9.63;8.20;;;;;;;16.89;100.00;101338.25;5231203;28;20828;-73
2023/08/05 06:17:01;;;;;;;10.00;7.63;;;;;;;16.85;100.00;101340.28;5231232;28;20033;-76
2023/08/05 06:19:33;;;;;;;9.80;8.37;;;;;;;17.08;100.00;101336.75;5231561;28;20033;-77
2023/08/05 06:22:05;;;;;;;9.87;7.73;;;;;;;17.19;100.00;101344.75;5231610;28;20113;-78
2023/08/05 06:24:36;;;;;;;9.20;7.43;;;;;;;17.21;100.00;101341.97;5231881;28;20029;-77
2023/08/05 06:27:07;;;;;;;10.17;8.10;;;;;;;17.23;100.00;101340.84;5230167;28;20484;-80
2023/08/05 06:29:38;;;;;;;9.90;6.83;;;;;;;17.25;100.00;101338.09;5231780;28;20096;-78
2023/08/05 06:32:10;;;;;;;10.27;6.40;;;;;;;17.29;100.00;101328.94;5223378;28;20120;-82
2023/08/05 06:34:41;;;;;;;9.33;6.53;;;;;;;17.25;100.00;101332.78;5229622;28;20037;-81
2023/08/05 06:37:12;;;;;;;9.83;6.60;;;;;;;17.30;100.00;101325.31;5231361;28;20026;-82
2023/08/05 06:39:44;;;;;;;10.23;7.10;;;;;;;17.32;100.00;101335.78;5231682;28;20072;-76
2023/08/05 06:42:15;;;;;;;10.50;6.10;;;;;;;17.39;100.00;101335.16;5230578;28;20075;-80
2023/08/05 06:44:49;;;;;;;7.37;5.60;;;;;;;17.53;100.00;101333.19;5234981;28;20072;-81
2023/08/05 06:47:20;;;;;;;7.07;5.82;;;;;;;17.59;100.00;101329.22;5235313;28;20036;-77
2023/08/05 06:49:51;;;;;;;9.17;5.93;;;;;;;17.65;100.00;101328.69;5234217;28;20042;-79
2023/08/05 06:52:23;;;;;;;12.43;6.73;;;;;;;17.56;100.00;101329.47;5228613;28;20021;-77
2023/08/05 06:54:55;;;;;;;12.43;7.10;;;;;;;17.77;100.00;101321.53;5235339;28;20030;-79
2023/08/05 06:57:27;;;;;;;9.23;6.30;;;;;;;17.84;100.00;101322.69;5235059;28;20084;-80
2023/08/05 06:59:58;;;;;;;9.60;6.60;;;;;;;18.00;100.00;101321.41;5235032;28;20029;-72
2023/08/05 07:02:30;;;;;;;9.07;6.90;;;;;;;18.13;100.00;101318.56;5234856;28;20025;-79
2023/08/05 07:05:01;;;;;;;8.83;6.57;;;;;;;18.14;100.00;101297.28;5233495;28;20079;-81
2023/08/05 07:07:32;;;;;;;9.17;6.30;;;;;;;18.24;100.00;101302.63;5234400;28;20034;-79
2023/08/05 07:10:07;;;;;;;8.60;5.63;;;;;;;18.34;100.00;101302.69;5234184;28;20055;-73
2023/08/05 07:12:39;;;;;;;7.30;5.10;;;;;;;18.54;100.00;101302.75;5232690;28;20033;-77
2023/08/05 07:15:10;;;;;;;8.87;5.73;;;;;;;18.64;100.00;101305.44;5234812;28;20037;-82
2023/08/05 07:17:41;;;;;;;6.07;4.43;;;;;;;18.68;100.00;101306.00;5234971;28;20025;-83
2023/08/05 07:20:13;;;;;;;7.57;4.33;;;;;;;18.80;100.00;101304.13;5233530;28;20037;-80
2023/08/05 07:22:44;;;;;;;7.43;5.00;;;;;;;18.94;100.00;101302.88;5248233;28;20036;-81
2023/08/05 07:25:15;;;;;;;8.47;5.20;;;;;;;19.01;100.00;101298.69;5254576;28;20060;-81
2023/08/05 07:27:46;;;;;;;7.30;5.57;;;;;;;19.04;100.00;101294.94;5234834;28;20479;-82
2023/08/05 07:30:18;;;;;;;6.37;4.47;;;;;;;19.10;100.00;101295.22;5233445;28;20057;-78
2023/08/05 07:32:49;;;;;;;7.73;5.17;;;;;;;19.28;100.00;101294.59;5233834;28;20030;-81
2023/08/05 07:35:20;;;;;;;7.20;4.80;;;;;;;19.49;100.00;101312.22;5232277;28;20318;-75
2023/08/05 07:37:52;;;;;;;8.40;4.60;;;;;;;19.76;100.00;101302.66;5233810;28;20037;-83
2023/08/05 07:40:23;;;;;;;5.60;4.20;;;;;;;19.66;100.00;101300.03;5255859;28;20036;-78
2023/08/05 07:42:55;;;;;;;5.23;4.20;;;;;;;19.70;100.00;101289.97;5254517;28;20044;-83
2023/08/05 07:45:26;;;;;;;5.80;3.87;;;;;;;19.94;100.00;101288.66;5234077;28;20526;-84
2023/08/05 07:47:58;;;;;;;5.37;4.40;;;;;;;20.11;100.00;101295.06;5234316;28;20057;-79
2023/08/05 07:50:29;;;;;;;9.33;4.67;;;;;;;20.21;100.00;101288.91;5230319;28;20488;-76
2023/08/05 07:53:03;;;;;;;6.07;4.27;;;;;;;20.52;100.00;101280.66;5248299;28;20166;-77
2023/08/05 07:55:36;;;;;;;5.63;3.85;;;;;;;21.11;100.00;101274.16;5256227;28;20066;-78
2023/08/05 07:58:07;;;;;;;6.40;3.50;;;;;;;21.42;100.00;101273.78;5254097;28;20032;-77
2023/08/05 08:00:39;;;;;;;6.50;4.07;;;;;;;21.33;100.00;101259.56;5252974;28;20025;-82
2023/08/05 08:03:11;;;;;;;6.03;3.97;;;;;;;21.87;100.00;101249.84;5253186;28;20040;-77
2023/08/05 08:05:42;;;;;;;5.60;3.03;;;;;;;22.87;100.00;101241.38;5253629;28;20716;-77
2023/08/05 08:08:13;;;;;;;5.03;2.97;;;;;;;22.98;100.00;101246.44;5254841;28;20055;-77
2023/08/05 08:10:46;;;;;;;4.68;2.63;;;;;;;23.09;100.00;101250.63;5254703;28;20108;-70
2023/08/05 08:13:17;;;;;;;3.45;2.47;;;;;;;22.82;100.00;101233.88;5242392;28;20021;-81
2023/08/05 08:15:48;;;;;;;6.85;2.50;;;;;;;22.50;100.00;101240.78;5221853;28;20091;-81
2023/08/05 08:18:20;;;;;;;5.30;2.70;;;;;;;22.40;100.00;101244.41;5213295;28;20412;-78
2023/08/05 08:20:52;;;;;;;5.13;2.08;;;;;;;22.21;100.00;101242.81;5212269;28;20033;-80
2023/08/05 08:23:24;;;;;;;7.72;2.88;;;;;;;22.17;100.00;101230.78;5213202;28;20354;-80
2023/08/05 08:25:59;;;;;;;4.55;2.15;;;;;;;22.35;100.00;101233.38;5213101;28;20037;-76
2023/08/05 08:28:30;;;;;;;3.78;2.00;;;;;;;22.19;100.00;101228.81;5212789;28;20362;-74
2023/08/05 08:31:02;;;;;;;3.90;2.03;;;;;;;22.06;100.00;101234.59;5212979;28;20095;-77
2023/08/05 08:33:33;;;;;;;4.97;2.20;;;;;;;21.97;100.00;101239.03;5212814;28;20097;-82
2023/08/05 08:36:05;;;;;;;5.75;2.50;;;;;;;22.39;100.00;101221.41;5216840;28;20136;-79
2023/08/05 08:38:36;;;;;;;5.40;1.95;;;;;;;23.04;100.00;101220.91;5237178;28;20032;-82
2023/08/05 08:41:08;;;;;;;3.55;2.03;;;;;;;23.60;100.00;101208.72;5234610;28;20040;-76
2023/08/05 08:43:42;;;;;;;3.97;1.98;;;;;;;23.78;100.00;101200.47;5239978;28;20044;-79
2023/08/05 08:46:13;;;;;;;;;;;;;;;24.97;100.00;101204.09;5232141;28;20030;-79
2023/08/05 08:48:48;;;;;;;2.45;1.60;;;;;;;25.00;100.00;101197.53;5233030;28;19917;-78
2023/08/05 08:51:21;;;;;;;5.03;2.17;;;;;;;25.05;100.00;101192.47;5252844;28;20588;-81
2023/08/05 08:53:52;;;;;;;3.20;1.70;;;;;;;25.00;100.00;101193.00;5244004;28;20105;-79
2023/08/05 08:56:24;;;;;;;2.72;1.40;;;;;;;25.05;100.00;101183.63;5232475;28;20563;-79
2023/08/05 08:58:55;;;;;;;9.82;2.10;;;;;;;24.91;100.00;101190.56;5232437;28;20112;-82
2023/08/05 09:01:27;;;;;;;3.50;1.50;;;;;;;24.94;100.00;101176.84;5233673;28;20041;-82
2023/08/05 09:03:59;;;;;;;4.80;1.80;;;;;;;24.34;100.00;101188.91;5235931;28;20061;-80
2023/08/05 09:06:30;;;;;;;3.83;1.80;;;;;;;24.40;100.00;101174.81;5222143;28;20092;-77
2023/08/05 09:09:02;;;;;;;4.25;1.90;;;;;;;23.97;100.00;101171.63;5232533;28;20037;-81
2023/08/05 09:11:33;;;;;;;4.18;1.70;;;;;;;23.60;100.00;101174.78;5239153;28;20029;-81
2023/08/05 09:14:04;;;;;;;3.92;1.65;;;;;;;23.52;100.00;101167.63;5227926;28;20029;-81
2023/08/05 09:16:56;;;;;;;3.35;1.52;;;;;;;23.61;100.00;101172.94;5220830;28;20092;-82
2023/08/05 09:19:28;;;;;;;3.85;1.98;;;;;;;23.20;100.00;101162.13;5229848;28;20826;-81
2023/08/05 09:22:02;;;;;;;3.42;1.88;;;;;;;22.79;100.00;101154.13;5238201;28;20583;-81
2023/08/05 09:24:34;;;;;;;6.00;2.25;;;;;;;22.46;100.00;101149.53;5233146;28;20025;-83
2023/08/05 09:27:05;;;;;;;3.97;2.20;;;;;;;22.50;100.00;101144.72;5211744;28;20065;-80
2023/08/05 09:29:37;;;;;;;3.72;2.47;;;;;;;22.32;100.00;101143.84;5213580;28;20065;-78
2023/08/05 09:32:11;;;;;;;3.80;2.40;;;;;;;22.30;100.00;101135.16;5230343;28;20079;-77
2023/08/05 09:34:42;;;;;;;2.83;1.85;;;;;;;22.58;100.00;101126.88;5233478;28;20060;-82
2023/08/05 09:37:14;;;;;;;4.70;3.00;;;;;;;22.39;100.00;101120.00;5234090;28;20041;-81
2023/08/05 09:39:51;;;;;;;4.32;2.60;;;;;;;22.55;100.00;101132.53;5239158;28;20043;-76
2023/08/05 09:42:27;;;;;;;4.00;2.33;;;;;;;22.29;100.00;101124.66;5252861;28;20476;-77
2023/08/05 09:44:58;;;;;;;4.22;2.40;;;;;;;22.31;100.00;101125.31;5235837;28;20063;-82
2023/08/05 09:47:31;;;;;;;4.53;2.78;;;;;;;22.45;100.00;101127.34;5230853;28;20480;-80
2023/08/05 09:50:05;;;;;;;3.88;2.30;;;;;;;22.26;100.00;101111.63;5229826;28;20025;-83
2023/08/05 09:52:38;;;;;;;6.15;2.28;;;;;;;22.33;100.00;101112.66;5231824;28;20353;-78
2023/08/05 09:55:14;;;;;;;3.88;2.55;;;;;;;22.06;100.00;101099.41;5232303;28;20039;-77
2023/08/05 09:57:45;;;;;;;7.45;3.72;;;;;;;21.71;100.00;101094.09;5251551;28;20171;-83
2023/08/05 10:00:17;;;;;;;4.47;2.10;;;;;;;22.00;100.00;101092.91;5252961;28;20025;-83
2023/08/05 10:02:48;;;;;;;4.13;2.83;;;;;;;22.00;100.00;101092.06;5252153;28;20029;-74
2023/08/05 10:05:20;;;;;;;5.00;2.30;;;;;;;21.96;100.00;101096.88;5250061;28;20918;-81
2023/08/05 10:07:53;;;;;;;4.65;2.83;;;;;;;22.07;100.00;101097.59;5251027;28;20068;-80
2023/08/05 10:10:24;;;;;;;5.25;2.95;;;;;;;22.26;100.00;101095.63;5251542;28;20025;-80
2023/08/05 10:13:04;;;;;;;3.90;2.38;;;;;;;22.46;100.00;101080.97;5251350;28;20032;-83
2023/08/05 10:15:40;;;;;;;4.35;2.60;;;;;;;22.44;100.00;101082.16;5247363;28;20033;-79
2023/08/05 10:18:16;;;;;;;4.15;2.50;;;;;;;22.29;100.00;101076.63;5218535;28;20124;-83
2023/08/05 10:20:52;;;;;;;7.53;3.67;;;;;;;21.93;100.00;101085.69;5214526;28;20072;-76
2023/08/05 10:23:24;;;;;;;3.50;2.85;;;;;;;21.81;100.00;101079.84;5228486;28;20485;-84
2023/08/05 10:26:01;;;;;;;9.30;3.78;;;;;;;21.97;100.00;101084.41;5213656;28;20022;-79
2023/08/05 10:28:35;;;;;;;4.82;3.30;;;;;;;21.83;100.00;101083.19;5237133;28;20082;-75
2023/08/05 10:31:24;;;;;;;7.78;3.67;;;;;;;22.03;100.00;101077.59;5255992;28;20060;-73
2023/08/05 10:34:18;;;;;;;6.70;3.47;;;;;;;21.95;100.00;101076.56;5241407;28;20108;-77
2023/08/05 10:36:56;;;;;;;4.55;3.17;;;;;;;21.82;100.00;101069.00;5243850;28;20112;-76
2023/08/05 10:39:46;;;;;;;6.53;3.95;;;;;;;21.91;100.00;101063.69;5256026;28;20380;-77
2023/08/05 10:42:19;;;;;;;4.75;3.88;;;;;;;21.83;100.00;101069.84;5237343;28;20064;-80
2023/08/05 10:44:53;;;;;;;4.13;3.08;;;;;;;22.00;100.00;101060.91;5250777;28;20355;-80
2023/08/05 10:47:25;;;;;;;5.53;3.20;;;;;;;21.91;100.00;101064.53;5244250;28;20026;-81
2023/08/05 10:49:57;;;;;;;4.68;3.33;;;;;;;21.91;100.00;101064.53;5248398;28;20039;-75
2023/08/05 10:52:29;;;;;;;5.32;3.13;;;;;;;21.98;100.00;101064.72;5252373;28;20111;-80
2023/08/05 10:55:01;;;;;;;3.53;2.83;;;;;;;21.90;100.00;101064.72;5234781;28;20116;-77
2023/08/05 10:57:35;;;;;;;4.80;2.85;;;;;;;22.00;100.00;101060.91;5235272;28;20033;-77
2023/08/05 11:00:07;;;;;;;5.82;3.10;;;;;;;21.81;100.00;101058.50;5251862;28;21065;-73
2023/08/05 11:02:38;;;;;;;3.22;2.30;;;;;;;21.96;100.00;101054.22;5245673;28;20511;-80
2023/08/05 11:05:10;;;;;;;8.52;2.83;;;;;;;21.98;100.00;101052.22;5240466;28;20124;-74
2023/08/05 11:07:45;;;;;;;3.53;2.63;;;;;;;22.15;100.00;101052.25;5228376;28;20071;-77
2023/08/05 11:10:16;;;;;;;4.18;2.72;;;;;;;22.27;100.00;101060.81;5234842;28;20365;-79
2023/08/05 11:12:47;;;;;;;6.45;3.03;;;;;;;22.19;100.00;101048.28;5237443;28;20036;-74
2023/08/05 11:15:19;;;;;;;4.13;2.47;;;;;;;22.20;100.00;101049.13;5216823;28;20034;-74
2023/08/05 11:17:54;;;;;;;5.95;2.40;;;;;;;22.44;100.00;101036.78;5215301;28;20030;-81
2023/08/05 11:20:32;;;;;;;4.65;3.00;;;;;;;22.42;100.00;101039.63;5213115;28;20032;-83
2023/08/05 11:23:03;;;;;;;3.95;2.70;;;;;;;21.97;100.00;101029.25;5228753;28;20025;-82
2023/08/05 11:25:35;;;;;;;7.18;2.80;;;;;;;21.99;100.00;101027.22;5240449;28;20047;-84
2023/08/05 11:28:06;;;;;;;5.35;2.42;;;;;;;21.84;100.00;101011.03;5222696;28;20033;-78
2023/08/05 11:30:39;;;;;;;7.20;3.13;;;;;;;21.76;100.00;101019.81;5252409;28;20120;-75
2023/08/05 11:33:10;;;;;;;6.43;2.80;;;;;;;21.75;100.00;101010.16;5218795;28;20034;-74
2023/08/05 11:35:45;;;;;;;6.20;2.67;;;;;;;21.65;100.00;101012.13;5228945;28;20053;-75
2023/08/05 11:38:17;;;;;;;5.75;2.50;;;;;;;21.32;100.00;101006.66;5237049;28;20033;-73